createdAt,value
2023-03-31T00:00:23.102Z,97442.66
2023-03-31T00:02:49.287Z,97436.53
2023-03-31T00:05:15.462Z,97440.00
2023-03-31T00:07:41.634Z,97442.66
2023-03-31T00:10:17.241Z,97418.63
2023-03-31T00:12:44.911Z,97423.16
2023-03-31T00:15:11.088Z,97429.31
2023-03-31T00:17:37.209Z,97423.16
2023-03-31T00:20:03.386Z,97418.88
2023-03-31T00:22:29.493Z,97409.00
2023-03-31T00:24:55.607Z,97398.31
2023-03-31T00:27:21.729Z,97393.00
2023-03-31T00:29:47.890Z,97391.94
2023-03-31T00:32:14.092Z,97393.00
2023-03-31T00:34:40.408Z,97380.44
2023-03-31T00:37:06.513Z,97379.63
2023-03-31T00:39:32.627Z,97368.97
2023-03-31T00:41:58.766Z,97367.91
2023-03-31T00:44:25.035Z,97360.13
2023-03-31T00:46:51.235Z,97353.75
2023-03-31T00:49:17.408Z,97361.75
2023-03-31T00:51:43.500Z,97336.91
2023-03-31T00:54:09.609Z,97340.63
2023-03-31T00:56:35.723Z,97336.91
2023-03-31T00:59:01.814Z,97332.38
2023-03-31T01:01:27.983Z,97332.38
2023-03-31T01:03:54.182Z,97329.72
2023-03-31T01:06:20.361Z,97332.38
2023-03-31T01:08:46.456Z,97327.03
2023-03-31T01:11:12.594Z,97330.53
2023-03-31T01:13:38.685Z,97322.75
2023-03-31T01:16:05.191Z,97317.97
2023-03-31T01:18:31.483Z,97310.22
2023-03-31T01:20:57.621Z,97307.53
2023-03-31T01:23:23.731Z,97306.75
2023-03-31T01:25:49.850Z,97310.22
2023-03-31T01:28:15.959Z,97305.91
2023-03-31T01:30:42.058Z,97296.06
2023-03-31T01:33:08.759Z,97296.88
2023-03-31T01:35:34.918Z,97287.00
2023-03-31T01:38:01.052Z,97292.56
2023-03-31T01:40:27.228Z,97288.06
2023-03-31T01:42:53.370Z,97283.53
2023-03-31T01:45:19.540Z,97268.31
2023-03-31T01:47:45.690Z,97259.50
2023-03-31T01:50:11.841Z,97254.16
2023-03-31T01:52:37.952Z,97248.00
2023-03-31T01:55:04.063Z,97246.94
2023-03-31T01:57:30.238Z,97237.31
2023-03-31T01:59:56.378Z,97232.78
2023-03-31T02:02:22.776Z,97232.78
2023-03-31T02:04:48.994Z,97231.97
2023-03-31T02:07:15.120Z,97228.47
2023-03-31T02:09:41.250Z,97221.53
2023-03-31T02:12:07.416Z,97211.44
2023-03-31T02:14:33.546Z,97194.59
2023-03-31T02:16:59.671Z,97198.06
2023-03-31T02:19:25.849Z,97181.25
2023-03-31T02:21:51.970Z,97184.72
2023-03-31T02:24:18.085Z,97173.47
2023-03-31T02:26:44.187Z,97172.41
2023-03-31T02:29:10.292Z,97161.72
2023-03-31T02:31:36.439Z,97169.75
2023-03-31T02:34:02.576Z,97159.91
2023-03-31T02:36:28.723Z,97156.97
2023-03-31T02:38:54.903Z,97146.53
2023-03-31T02:41:21.043Z,97148.38
2023-03-31T02:43:47.161Z,97150.03
2023-03-31T02:46:13.342Z,97138.53
2023-03-31T02:48:39.507Z,97135.03
2023-03-31T02:51:05.615Z,97126.22
2023-03-31T02:53:31.756Z,97127.03
2023-03-31T02:55:57.908Z,97120.88
2023-03-31T02:58:24.065Z,97111.00
2023-03-31T03:00:50.292Z,97112.06
2023-03-31T03:03:16.453Z,97104.06
2023-03-31T03:05:42.762Z,97110.19
2023-03-31T03:08:08.994Z,97094.19
2023-03-31T03:10:35.099Z,97072.00
2023-03-31T03:13:01.265Z,97080.03
2023-03-31T03:15:27.401Z,97054.13
2023-03-31T03:17:53.548Z,97045.31
2023-03-31T03:20:19.700Z,97044.50
2023-03-31T03:22:45.819Z,97038.91
2023-03-31T03:25:12.074Z,97031.97
2023-03-31T03:27:38.233Z,97031.97
2023-03-31T03:30:04.345Z,97028.25
2023-03-31T03:32:30.520Z,97030.09
2023-03-31T03:34:56.661Z,97023.16
2023-03-31T03:37:22.862Z,97012.22
2023-03-31T03:39:48.973Z,97004.22
2023-03-31T03:42:15.081Z,97010.63
2023-03-31T03:44:41.220Z,97005.28
2023-03-31T03:47:07.399Z,96997.25
2023-03-31T03:49:33.519Z,96981.25
2023-03-31T03:51:59.662Z,96990.06
2023-03-31T03:54:25.824Z,96975.91
2023-03-31T03:56:52.000Z,96965.22
2023-03-31T03:59:18.171Z,96957.22
2023-03-31T04:01:44.347Z,96950.00
2023-03-31T04:04:10.495Z,96948.41
2023-03-31T04:06:36.913Z,96951.88
2023-03-31T04:09:03.088Z,96965.22
2023-03-31T04:11:29.199Z,96955.56
2023-03-31T04:13:55.366Z,96943.88
2023-03-31T04:16:21.576Z,96933.19
2023-03-31T04:18:47.721Z,96907.53
2023-03-31T04:21:13.880Z,96920.88
2023-03-31T04:23:39.989Z,96926.22
2023-03-31T04:26:06.248Z,96914.50
2023-03-31T04:28:32.474Z,96902.19
2023-03-31T04:30:58.595Z,96895.81
2023-03-31T04:33:24.752Z,96894.19
2023-03-31T04:35:50.923Z,96900.34
2023-03-31T04:38:17.102Z,96887.81
2023-03-31T04:40:43.226Z,96893.38
2023-03-31T04:43:09.452Z,96885.38
2023-03-31T04:45:35.652Z,96883.50
2023-03-31T04:48:01.921Z,96871.78
2023-03-31T04:50:28.045Z,96875.50
2023-03-31T04:52:54.187Z,96870.16
2023-03-31T04:55:20.360Z,96856.00
2023-03-31T04:57:46.516Z,96856.00
2023-03-31T05:00:12.674Z,96860.53
2023-03-31T05:02:38.883Z,96854.13
2023-03-31T05:05:05.043Z,96840.78
2023-03-31T05:07:31.224Z,96841.84
2023-03-31T05:09:57.323Z,96841.84
2023-03-31T05:12:24.084Z,96846.13
2023-03-31T05:14:50.252Z,96848.78
2023-03-31T05:17:16.358Z,96843.47
2023-03-31T05:19:42.490Z,96827.44
2023-03-31T05:22:08.676Z,96822.09
2023-03-31T05:24:34.820Z,96807.94
2023-03-31T05:27:00.939Z,96811.41
2023-03-31T05:29:27.031Z,96791.69
2023-03-31T05:31:53.318Z,96798.06
2023-03-31T05:34:19.548Z,96790.06
2023-03-31T05:36:45.645Z,96776.72
2023-03-31T05:39:11.792Z,96773.00
2023-03-31T05:41:37.952Z,96767.91
2023-03-31T05:44:04.088Z,96757.22
2023-03-31T05:46:30.321Z,96755.34
2023-03-31T05:48:56.480Z,96749.22
2023-03-31T05:51:22.584Z,96742.00
2023-03-31T05:53:48.714Z,96732.41
2023-03-31T05:56:14.856Z,96726.25
2023-03-31T05:58:40.995Z,96727.88
2023-03-31T06:01:07.489Z,96727.88
2023-03-31T06:03:33.965Z,96712.91
2023-03-31T06:06:00.152Z,96707.31
2023-03-31T06:08:26.273Z,96709.19
2023-03-31T06:10:52.417Z,96698.50
2023-03-31T06:13:18.576Z,96679.00
2023-03-31T06:15:44.707Z,96682.47
2023-03-31T06:18:11.012Z,96682.47
2023-03-31T06:20:37.123Z,96681.69
2023-03-31T06:23:03.246Z,96681.69
2023-03-31T06:25:37.145Z,96677.16
2023-03-31T06:28:06.550Z,96674.47
2023-03-31T06:30:32.684Z,96679.00
2023-03-31T06:32:58.855Z,96681.44
2023-03-31T06:35:25.072Z,96663.00
2023-03-31T06:37:51.210Z,96668.34
2023-03-31T06:40:17.319Z,96665.66
2023-03-31T06:42:43.472Z,96660.31
2023-03-31T06:45:09.611Z,96656.06
2023-03-31T06:47:35.784Z,96657.66
2023-03-31T06:50:01.935Z,96653.38
2023-03-31T06:52:28.244Z,96638.97
2023-03-31T06:54:54.340Z,96640.03
2023-03-31T06:57:20.511Z,96640.84
2023-03-31T06:59:47.050Z,96641.88
2023-03-31T07:02:13.197Z,96633.88
2023-03-31T07:04:39.377Z,96632.81
2023-03-31T07:07:05.533Z,96637.38
2023-03-31T07:09:31.698Z,96619.72
2023-03-31T07:11:57.853Z,96633.06
2023-03-31T07:14:26.421Z,96631.19
2023-03-31T07:16:52.589Z,96627.72
2023-03-31T07:19:18.860Z,96627.72
2023-03-31T07:21:45.032Z,96626.91
2023-03-31T07:24:11.152Z,96632.25
2023-03-31T07:26:37.264Z,96631.47
2023-03-31T07:29:03.409Z,96611.72
2023-03-31T07:31:29.537Z,96635.72
2023-03-31T07:33:55.719Z,96626.91
2023-03-31T07:36:22.247Z,96628.53
2023-03-31T07:38:48.450Z,96633.06
2023-03-31T07:41:14.645Z,96625.06
2023-03-31T07:43:40.819Z,96619.72
2023-03-31T07:46:07.186Z,96617.84
2023-03-31T07:48:33.481Z,96615.44
2023-03-31T07:50:59.597Z,96617.31
2023-03-31T07:53:25.776Z,96611.72
2023-03-31T07:55:51.929Z,96606.38
2023-03-31T07:58:18.046Z,96610.91
2023-03-31T08:00:44.147Z,96606.38
2023-03-31T08:03:10.273Z,96602.91
2023-03-31T08:05:36.497Z,96589.56
2023-03-31T08:08:02.667Z,96602.91
2023-03-31T08:10:28.839Z,96587.13
2023-03-31T08:12:54.963Z,96587.69
2023-03-31T08:15:21.106Z,96584.22
2023-03-31T08:17:47.299Z,96585.03
2023-03-31T08:20:13.517Z,96583.41
2023-03-31T08:22:39.613Z,96571.94
2023-03-31T08:25:05.739Z,96578.06
2023-03-31T08:27:31.931Z,96571.66
2023-03-31T08:29:58.050Z,96575.41
2023-03-31T08:32:24.171Z,96577.00
2023-03-31T08:34:50.363Z,96571.66
2023-03-31T08:37:16.484Z,96580.75
2023-03-31T08:39:42.588Z,96572.75
2023-03-31T08:42:11.423Z,96567.41
2023-03-31T08:44:38.798Z,96564.72
2023-03-31T08:47:04.902Z,96562.06
2023-03-31T08:49:31.036Z,96564.97
2023-03-31T08:51:57.148Z,96549.75
2023-03-31T08:54:23.266Z,96546.03
2023-03-31T08:56:49.551Z,96551.38
2023-03-31T08:59:15.685Z,96556.16
2023-03-31T09:01:54.763Z,96554.84
2023-03-31T09:04:22.921Z,96546.03
2023-03-31T09:06:49.125Z,96546.28
2023-03-31T09:09:15.228Z,96534.56
2023-03-31T09:11:41.351Z,96546.28
2023-03-31T09:14:07.522Z,96553.00
2023-03-31T09:16:33.687Z,96544.41
2023-03-31T09:19:00.197Z,96541.50
2023-03-31T09:21:26.306Z,96546.84
2023-03-31T09:23:52.459Z,96544.19
2023-03-31T09:26:18.703Z,96543.63
2023-03-31T09:28:44.806Z,96546.84
2023-03-31T09:31:11.021Z,96548.72
2023-03-31T09:33:37.209Z,96542.56
2023-03-31T09:36:03.563Z,96538.03
2023-03-31T09:38:29.794Z,96540.94
2023-03-31T09:40:56.028Z,96544.41
2023-03-31T09:43:22.164Z,96532.13
2023-03-31T09:46:01.765Z,96539.06
2023-03-31T09:48:34.440Z,96531.91
2023-03-31T09:51:00.562Z,96523.06
2023-03-31T09:53:26.704Z,96522.03
2023-03-31T09:55:52.820Z,96508.13
2023-03-31T09:58:18.930Z,96508.69
2023-03-31T10:00:45.051Z,96513.44
2023-03-31T10:03:11.255Z,96500.66
2023-03-31T10:05:37.388Z,96507.03
2023-03-31T10:08:03.508Z,96506.25
2023-03-31T10:10:29.666Z,96492.66
2023-03-31T10:12:55.796Z,96489.19
2023-03-31T10:15:21.946Z,96488.94
2023-03-31T10:20:17.145Z,96486.25
2023-03-31T10:22:43.246Z,96483.59
2023-03-31T10:25:10.372Z,96476.66
2023-03-31T10:27:36.464Z,96477.44
2023-03-31T10:30:02.693Z,96472.91
2023-03-31T10:32:29.046Z,96467.56
2023-03-31T10:34:55.592Z,96461.44
2023-03-31T10:37:21.747Z,96451.56
2023-03-31T10:39:47.910Z,96456.91
2023-03-31T10:42:14.022Z,96454.22
2023-03-31T10:44:40.119Z,96454.22
2023-03-31T10:47:06.339Z,96453.19
2023-03-31T10:49:32.499Z,96456.91
2023-03-31T10:51:58.668Z,96453.19
2023-03-31T10:54:24.800Z,96443.56
2023-03-31T10:56:52.747Z,96434.50
2023-03-31T10:59:20.105Z,96432.88
2023-03-31T11:01:46.242Z,96438.22
2023-03-31T11:04:12.372Z,96431.00
2023-03-31T11:06:38.476Z,96449.69
2023-03-31T11:09:04.719Z,96477.22
2023-03-31T11:11:30.833Z,96484.38
2023-03-31T11:13:57.009Z,96482.56
2023-03-31T11:16:23.248Z,96461.44
2023-03-31T11:18:49.401Z,96460.38
2023-03-31T11:21:15.522Z,96459.31
2023-03-31T11:23:41.678Z,96446.22
2023-03-31T11:26:07.823Z,96452.34
2023-03-31T11:28:33.917Z,96437.16
2023-03-31T11:31:00.046Z,96444.13
2023-03-31T11:33:26.216Z,96429.16
2023-03-31T11:35:52.365Z,96427.28
2023-03-31T11:38:18.499Z,96414.75
2023-03-31T11:40:44.683Z,96407.81
2023-03-31T11:43:10.810Z,96408.63
2023-03-31T11:45:37.012Z,96402.19
2023-03-31T11:48:05.463Z,96405.66
2023-03-31T11:50:33.138Z,96508.19
2023-03-31T11:52:59.302Z,96505.28
2023-03-31T11:55:25.478Z,96512.22
2023-03-31T11:57:51.634Z,96505.84
2023-03-31T12:00:17.796Z,96506.88
2023-03-31T12:02:44.056Z,96505.28
2023-03-31T12:05:10.200Z,96499.09
2023-03-31T12:07:36.417Z,96500.72
2023-03-31T12:10:02.638Z,96501.75
2023-03-31T12:12:28.898Z,96503.41
2023-03-31T12:14:55.362Z,96488.41
2023-03-31T12:17:21.566Z,96482.03
2023-03-31T12:19:47.781Z,96478.56
2023-03-31T12:22:13.932Z,96474.03
2023-03-31T12:24:40.118Z,96463.34
2023-03-31T12:27:06.300Z,96456.38
2023-03-31T12:29:33.716Z,96458.03
2023-03-31T12:31:59.915Z,96446.53
2023-03-31T12:34:26.155Z,96448.94
2023-03-31T12:36:54.868Z,96447.34
2023-03-31T12:39:21.578Z,96432.94
2023-03-31T12:41:47.783Z,96438.53
2023-03-31T12:44:13.977Z,96428.66
2023-03-31T12:46:40.219Z,96421.44
2023-03-31T12:49:06.414Z,96427.59
2023-03-31T12:51:32.535Z,96420.41
2023-03-31T12:54:00.186Z,96430.25
2023-03-31T12:56:26.826Z,96416.91
2023-03-31T12:58:52.943Z,96410.78
2023-03-31T13:01:19.166Z,96414.25
2023-03-31T13:03:45.365Z,96421.22
2023-03-31T13:06:11.498Z,96412.41
2023-03-31T13:08:37.600Z,96408.91
2023-03-31T13:11:03.848Z,96411.56
2023-03-31T13:13:30.108Z,96423.06
2023-03-31T13:15:56.221Z,96421.22
2023-03-31T13:18:22.343Z,96419.34
2023-03-31T13:20:48.616Z,96423.88
2023-03-31T13:23:14.732Z,96424.69
2023-03-31T13:25:40.867Z,96418.53
2023-03-31T13:28:06.982Z,96422.81
2023-03-31T13:30:33.082Z,96435.34
2023-03-31T13:32:59.218Z,96434.56
2023-03-31T13:35:25.564Z,96429.22
2023-03-31T13:37:51.664Z,96426.28
2023-03-31T13:40:17.757Z,96415.59
2023-03-31T13:42:43.981Z,96411.34
2023-03-31T13:45:10.163Z,96406.00
2023-03-31T13:47:36.326Z,96409.47
2023-03-31T13:50:02.476Z,96403.09
2023-03-31T13:52:28.585Z,96390.78
2023-03-31T13:54:54.685Z,96394.25
2023-03-31T13:57:20.900Z,96399.59
2023-03-31T13:59:47.031Z,96403.09
2023-03-31T14:02:13.144Z,96389.75
2023-03-31T14:04:39.263Z,96393.44
2023-03-31T14:07:05.419Z,96396.13
2023-03-31T14:09:31.529Z,96390.53
2023-03-31T14:11:57.646Z,96391.56
2023-03-31T14:14:23.786Z,96391.56
2023-03-31T14:16:49.907Z,96386.00
2023-03-31T14:19:16.057Z,96387.06
2023-03-31T14:21:42.167Z,96390.78
2023-03-31T14:24:08.272Z,96391.34
2023-03-31T14:26:34.390Z,96391.34
2023-03-31T14:29:00.500Z,96388.66
2023-03-31T14:31:26.627Z,96387.06
2023-03-31T14:33:52.843Z,96385.19
2023-03-31T14:36:18.958Z,96372.41
2023-03-31T14:38:45.073Z,96376.91
2023-03-31T14:41:11.381Z,96370.78
2023-03-31T14:43:37.580Z,96375.06
2023-03-31T14:46:03.688Z,96382.81
2023-03-31T14:48:29.821Z,96367.88
2023-03-31T14:50:55.909Z,96364.13
2023-03-31T14:53:22.011Z,96363.31
2023-03-31T14:55:58.218Z,96358.00
2023-03-31T14:58:25.442Z,96356.38
2023-03-31T15:00:51.688Z,96357.19
2023-03-31T15:03:17.821Z,96362.53
2023-03-31T15:05:43.942Z,96352.66
2023-03-31T15:08:10.071Z,96349.19
2023-03-31T15:10:36.179Z,96349.19
2023-03-31T15:13:02.293Z,96342.78
2023-03-31T15:15:28.448Z,96337.69
2023-03-31T15:17:54.612Z,96341.97
2023-03-31T15:20:20.722Z,96341.16
2023-03-31T15:22:46.892Z,96330.50
2023-03-31T15:25:13.016Z,96329.41
2023-03-31T15:27:39.158Z,96328.63
2023-03-31T15:30:05.270Z,96332.91
2023-03-31T15:32:31.619Z,96332.09
2023-03-31T15:35:04.756Z,96332.91
2023-03-31T15:37:37.585Z,96331.28
2023-03-31T15:40:03.759Z,96318.75
2023-03-31T15:42:29.880Z,96311.56
2023-03-31T15:44:56.003Z,96312.38
2023-03-31T15:47:22.243Z,96308.91
2023-03-31T15:49:48.388Z,96308.06
2023-03-31T15:52:14.498Z,96312.38
2023-03-31T15:54:40.598Z,96318.50
2023-03-31T15:57:06.774Z,96329.19
2023-03-31T15:59:41.754Z,96336.38
2023-03-31T16:02:17.726Z,96349.75
2023-03-31T16:04:43.871Z,96358.53
2023-03-31T16:07:09.992Z,96371.09
2023-03-31T16:09:36.205Z,96378.03
2023-03-31T16:12:02.528Z,96397.53
2023-03-31T16:14:28.755Z,96394.06
2023-03-31T16:16:54.845Z,96392.19
2023-03-31T16:19:20.985Z,96394.06
2023-03-31T16:21:47.128Z,96389.78
2023-03-31T16:24:13.224Z,96378.03
2023-03-31T16:26:39.375Z,96382.56
2023-03-31T16:29:05.476Z,96371.91
2023-03-31T16:31:31.619Z,96364.69
2023-03-31T16:33:57.730Z,96362.81
2023-03-31T16:36:25.676Z,96360.16
2023-03-31T16:38:51.851Z,96358.53
2023-03-31T16:41:18.423Z,96354.00
2023-03-31T16:43:44.524Z,96354.81
2023-03-31T16:46:10.677Z,96342.28
2023-03-31T16:48:36.821Z,96341.47
2023-03-31T16:51:02.954Z,96338.78
2023-03-31T16:53:29.107Z,96326.50
2023-03-31T16:55:55.232Z,96329.97
2023-03-31T16:58:21.350Z,96339.06
2023-03-31T17:00:47.518Z,96331.59
2023-03-31T17:03:15.376Z,96327.31
2023-03-31T17:05:41.549Z,96313.16
2023-03-31T17:08:07.676Z,96315.84
2023-03-31T17:10:33.803Z,96313.16
2023-03-31T17:12:59.892Z,96313.97
2023-03-31T17:15:26.011Z,96313.16
2023-03-31T17:17:52.182Z,96306.75
2023-03-31T17:20:18.344Z,96315.03
2023-03-31T17:22:44.469Z,96317.69
2023-03-31T17:25:10.588Z,96320.38
2023-03-31T17:27:36.688Z,96314.22
2023-03-31T17:30:02.911Z,96320.38
2023-03-31T17:32:29.251Z,96333.72
2023-03-31T17:34:55.518Z,96326.50
2023-03-31T17:37:21.649Z,96324.09
2023-03-31T17:39:47.853Z,96328.38
2023-03-31T17:42:13.955Z,96316.06
2023-03-31T17:44:40.090Z,96332.09
2023-03-31T17:47:06.930Z,96324.91
2023-03-31T17:49:33.110Z,96332.09
2023-03-31T17:51:59.215Z,96330.25
2023-03-31T17:54:25.405Z,96323.28
2023-03-31T17:56:51.560Z,96332.09
2023-03-31T17:59:17.755Z,96331.28
2023-03-31T18:01:43.951Z,96325.16
2023-03-31T18:04:10.359Z,96347.31
2023-03-31T18:06:36.494Z,96334.19
2023-03-31T18:09:02.649Z,96334.19
2023-03-31T18:11:28.752Z,96335.03
2023-03-31T18:13:54.898Z,96328.88
2023-03-31T18:16:21.051Z,96338.50
2023-03-31T18:18:47.177Z,96346.50
2023-03-31T18:21:13.368Z,96340.38
2023-03-31T18:23:39.520Z,96335.84
2023-03-31T18:26:05.707Z,96340.38
2023-03-31T18:28:31.846Z,96344.63
2023-03-31T18:30:58.471Z,96346.50
2023-03-31T18:33:24.722Z,96341.16
2023-03-31T18:35:50.955Z,96349.19
2023-03-31T18:38:17.146Z,96359.06
2023-03-31T18:40:43.259Z,96348.38
2023-03-31T18:43:09.412Z,96352.88
2023-03-31T18:45:35.758Z,96347.56
2023-03-31T18:48:02.125Z,96356.38
2023-03-31T18:50:28.293Z,96354.75
2023-03-31T18:52:54.807Z,96359.84
2023-03-31T18:55:21.079Z,96355.56
2023-03-31T18:57:47.235Z,96360.91
2023-03-31T19:00:13.420Z,96370.78
2023-03-31T19:02:39.706Z,96364.63
2023-03-31T19:05:05.944Z,96366.25
2023-03-31T19:07:32.064Z,96351.28
2023-03-31T19:09:58.155Z,96375.31
2023-03-31T19:12:24.281Z,96370.78
2023-03-31T19:14:50.390Z,96368.38
2023-03-31T19:17:16.489Z,96363.03
2023-03-31T19:19:42.599Z,96375.31
2023-03-31T19:22:08.712Z,96365.44
2023-03-31T19:24:34.813Z,96361.97
2023-03-31T19:27:00.951Z,96361.16
2023-03-31T19:29:27.189Z,96361.97
2023-03-31T19:31:53.352Z,96363.84
2023-03-31T19:34:19.517Z,96359.31
2023-03-31T19:36:45.688Z,96367.31
2023-03-31T19:39:11.816Z,96366.25
2023-03-31T19:41:38.093Z,96364.63
2023-03-31T19:44:04.207Z,96367.31
2023-03-31T19:46:30.431Z,96352.09
2023-03-31T19:48:56.614Z,96360.91
2023-03-31T19:51:22.741Z,96353.16
2023-03-31T19:53:48.848Z,96354.75
2023-03-31T19:56:14.947Z,96343.28
2023-03-31T19:58:41.060Z,96344.09
2023-03-31T20:01:07.266Z,96337.16
2023-03-31T20:03:33.680Z,96347.03
2023-03-31T20:06:00.125Z,96354.75
2023-03-31T20:08:26.260Z,96351.28
2023-03-31T20:10:52.451Z,96342.47
2023-03-31T20:13:18.629Z,96344.09
2023-03-31T20:15:44.731Z,96336.06
2023-03-31T20:18:10.940Z,96338.75
2023-03-31T20:20:37.091Z,96332.59
2023-03-31T20:23:03.175Z,96337.94
2023-03-31T20:25:29.701Z,96336.06
2023-03-31T20:27:56.037Z,96339.81
2023-03-31T20:30:22.137Z,96337.94
2023-03-31T20:32:48.405Z,96342.47
2023-03-31T20:35:14.618Z,96340.06
2023-03-31T20:37:40.719Z,96337.16
2023-03-31T20:40:06.830Z,96332.84
2023-03-31T20:42:33.016Z,96334.72
2023-03-31T20:44:59.120Z,96337.16
2023-03-31T20:47:25.394Z,96340.84
2023-03-31T20:49:51.603Z,96339.00
2023-03-31T20:52:17.704Z,96336.34
2023-03-31T20:54:43.830Z,96333.91
2023-03-31T20:57:10.025Z,96331.25
2023-03-31T20:59:36.171Z,96335.50
2023-03-31T21:02:02.277Z,96328.59
2023-03-31T21:04:28.423Z,96335.78
2023-03-31T21:06:54.535Z,96338.47
2023-03-31T21:09:20.754Z,96326.97
2023-03-31T21:11:46.877Z,96333.13
2023-03-31T21:14:13.009Z,96335.78
2023-03-31T21:16:39.125Z,96327.78
2023-03-31T21:19:05.251Z,96334.16
2023-03-31T21:21:31.340Z,96338.47
2023-03-31T21:23:57.441Z,96338.47
2023-03-31T21:26:23.563Z,96336.81
2023-03-31T21:28:49.646Z,96339.50
2023-03-31T21:31:15.747Z,96342.16
2023-03-31T21:33:41.854Z,96336.81
2023-03-31T21:36:08.134Z,96340.56
2023-03-31T21:38:34.290Z,96343.25
2023-03-31T21:41:00.560Z,96343.25
2023-03-31T21:43:26.658Z,96338.69
2023-03-31T21:45:52.809Z,96329.91
2023-03-31T21:48:18.956Z,96334.44
2023-03-31T21:50:45.055Z,96335.22
2023-03-31T21:53:11.161Z,96335.22
2023-03-31T21:55:37.456Z,96332.56
2023-03-31T21:58:03.647Z,96329.09
2023-03-31T22:00:29.753Z,96343.25
2023-03-31T22:03:10.837Z,96329.09
2023-03-31T22:05:42.158Z,96338.94
2023-03-31T22:08:11.163Z,96337.09
2023-03-31T22:10:37.270Z,96335.22
2023-03-31T22:13:03.387Z,96341.59
2023-03-31T22:15:29.732Z,96340.81
2023-03-31T22:17:55.958Z,96347.78
2023-03-31T22:20:22.123Z,96335.22
2023-03-31T22:22:48.393Z,96341.59
2023-03-31T22:25:14.568Z,96340.81
2023-03-31T22:27:43.749Z,96338.16
2023-03-31T22:30:09.946Z,96337.34
2023-03-31T22:32:36.095Z,96337.34
2023-03-31T22:35:02.270Z,96335.47
2023-03-31T22:37:28.417Z,96341.88
2023-03-31T22:39:54.587Z,96332.00
2023-03-31T22:42:20.713Z,96337.34
2023-03-31T22:44:47.260Z,96338.16
2023-03-31T22:47:13.422Z,96337.34
2023-03-31T22:49:39.617Z,96347.22
2023-03-31T22:52:05.748Z,96342.69
2023-03-31T22:54:31.860Z,96335.75
2023-03-31T22:56:58.105Z,96332.00
2023-03-31T22:59:24.403Z,96329.34
2023-03-31T23:01:50.773Z,96333.06
2023-03-31T23:04:16.916Z,96339.22
2023-03-31T23:06:43.108Z,96340.00
2023-03-31T23:09:09.304Z,96343.75
2023-03-31T23:11:35.407Z,96337.59
2023-03-31T23:14:01.616Z,96333.06
2023-03-31T23:16:27.752Z,96340.00
2023-03-31T23:18:53.852Z,96341.88
2023-03-31T23:21:20.063Z,96339.22
2023-03-31T23:23:46.254Z,96333.06
2023-03-31T23:26:12.396Z,96341.09
2023-03-31T23:28:38.577Z,96335.75
2023-03-31T23:31:04.692Z,96347.22
2023-03-31T23:33:30.776Z,96334.91
2023-03-31T23:35:56.920Z,96331.44
2023-03-31T23:38:23.110Z,96332.25
2023-03-31T23:40:49.374Z,96323.44
2023-03-31T23:43:15.557Z,96327.97
2023-03-31T23:45:41.764Z,96324.25
2023-03-31T23:48:07.996Z,96329.56
2023-03-31T23:50:34.205Z,96324.25
2023-03-31T23:53:00.352Z,96320.78
2023-03-31T23:55:26.561Z,96320.78
2023-03-31T23:57:52.695Z,96314.63
